Port Hartcourt, Port Harcourt International Airport (DNPO)

NamePort Harcourt International Airport
CityPort Hartcourt
CountryNigeria
ICAODNPO
IATAPHC
Altitude27 m
CoordinatesGoogle Map
Live Air TrafficLiveATC.net
METARDNPO 172000Z 23003KT 9999 BKN009 28/24 Q1012 NOSIG
2018-04-17 20:00:00 Wind: Southwest (230°) 1.54 m/s - Visibility: > 10000 m - Temperature: 28 °C - Dew point: 24 °C - Humidity: 78.9% - Pressure: 1012 hPa
Statistics

The table below shows the detailed information of all flights to/from Port Hartcourt, Port Harcourt International Airport (DNPO).